sensor_id;sensor_type;location;lat;lon;timestamp;P1;durP1;ratioP1;P2;durP2;ratioP2
46845;SDS011;33947;46.804;134.252;2024-02-28T00:02:07;30.48;;;11.15;;
46845;SDS011;33947;46.804;134.252;2024-02-28T00:05:14;41.28;;;17.05;;
46845;SDS011;33947;46.804;134.252;2024-02-28T00:08:24;104.13;;;35.10;;
46845;SDS011;33947;46.804;134.252;2024-02-28T00:11:31;20.23;;;9.18;;
46845;SDS011;33947;46.804;134.252;2024-02-28T00:14:38;34.95;;;14.80;;
46845;SDS011;33947;46.804;134.252;2024-02-28T00:17:45;38.35;;;17.48;;
46845;SDS011;33947;46.804;134.252;2024-02-28T00:20:52;33.20;;;14.15;;
46845;SDS011;33947;46.804;134.252;2024-02-28T00:24:01;27.73;;;10.82;;
46845;SDS011;33947;46.804;134.252;2024-02-28T00:27:08;7.53;;;3.92;;
46845;SDS011;33947;46.804;134.252;2024-02-28T00:30:17;9.45;;;3.58;;
46845;SDS011;33947;46.804;134.252;2024-02-28T00:33:25;9.70;;;3.80;;
46845;SDS011;33947;46.804;134.252;2024-02-28T00:36:32;17.02;;;6.45;;
46845;SDS011;33947;46.804;134.252;2024-02-28T00:39:56;9.85;;;5.20;;
46845;SDS011;33947;46.804;134.252;2024-02-28T00:43:04;11.00;;;5.15;;
46845;SDS011;33947;46.804;134.252;2024-02-28T00:46:12;14.73;;;7.30;;
46845;SDS011;33947;46.804;134.252;2024-02-28T00:49:20;25.75;;;10.40;;
46845;SDS011;33947;46.804;134.252;2024-02-28T00:52:26;16.45;;;7.82;;
46845;SDS011;33947;46.804;134.252;2024-02-28T00:55:37;20.52;;;7.72;;
46845;SDS011;33947;46.804;134.252;2024-02-28T00:58:44;24.58;;;9.18;;
46845;SDS011;33947;46.804;134.252;2024-02-28T01:01:51;25.77;;;11.05;;
46845;SDS011;33947;46.804;134.252;2024-02-28T01:04:58;32.25;;;10.20;;
46845;SDS011;33947;46.804;134.252;2024-02-28T01:08:06;48.70;;;20.08;;
46845;SDS011;33947;46.804;134.252;2024-02-28T01:11:15;18.33;;;8.23;;
46845;SDS011;33947;46.804;134.252;2024-02-28T01:14:22;16.20;;;8.30;;
46845;SDS011;33947;46.804;134.252;2024-02-28T01:17:30;28.35;;;13.43;;
46845;SDS011;33947;46.804;134.252;2024-02-28T01:20:37;28.00;;;9.95;;
46845;SDS011;33947;46.804;134.252;2024-02-28T01:23:44;12.48;;;4.15;;
46845;SDS011;33947;46.804;134.252;2024-02-28T01:26:53;16.60;;;5.88;;
46845;SDS011;33947;46.804;134.252;2024-02-28T01:30:00;8.30;;;4.07;;
46845;SDS011;33947;46.804;134.252;2024-02-28T01:33:07;9.65;;;3.92;;
46845;SDS011;33947;46.804;134.252;2024-02-28T01:39:33;7.05;;;3.58;;
46845;SDS011;33947;46.804;134.252;2024-02-28T01:42:41;6.88;;;3.13;;
46845;SDS011;33947;46.804;134.252;2024-02-28T01:45:49;7.80;;;3.72;;
46845;SDS011;33947;46.804;134.252;2024-02-28T01:48:56;8.55;;;3.97;;
46845;SDS011;33947;46.804;134.252;2024-02-28T01:52:05;9.45;;;3.20;;
46845;SDS011;33947;46.804;134.252;2024-02-28T01:55:13;9.63;;;3.28;;
46845;SDS011;33947;46.804;134.252;2024-02-28T01:58:21;6.30;;;3.45;;
46845;SDS011;33947;46.804;134.252;2024-02-28T02:01:29;6.43;;;3.35;;
46845;SDS011;33947;46.804;134.252;2024-02-28T02:04:36;10.85;;;3.80;;
46845;SDS011;33947;46.804;134.252;2024-02-28T02:07:43;12.20;;;5.00;;
46845;SDS011;33947;46.804;134.252;2024-02-28T02:10:51;7.65;;;3.80;;
46845;SDS011;33947;46.804;134.252;2024-02-28T02:13:59;9.52;;;4.40;;
46845;SDS011;33947;46.804;134.252;2024-02-28T02:17:06;9.13;;;3.67;;
46845;SDS011;33947;46.804;134.252;2024-02-28T02:20:14;13.23;;;5.82;;
46845;SDS011;33947;46.804;134.252;2024-02-28T02:23:23;6.57;;;3.65;;
46845;SDS011;33947;46.804;134.252;2024-02-28T02:26:31;9.70;;;4.80;;
46845;SDS011;33947;46.804;134.252;2024-02-28T02:29:38;10.95;;;4.38;;
46845;SDS011;33947;46.804;134.252;2024-02-28T02:32:45;9.63;;;3.90;;
46845;SDS011;33947;46.804;134.252;2024-02-28T02:35:53;17.30;;;5.75;;
46845;SDS011;33947;46.804;134.252;2024-02-28T02:39:02;10.30;;;4.85;;
46845;SDS011;33947;46.804;134.252;2024-02-28T02:42:12;15.68;;;4.82;;
46845;SDS011;33947;46.804;134.252;2024-02-28T02:45:20;12.95;;;4.47;;
46845;SDS011;33947;46.804;134.252;2024-02-28T02:48:30;12.52;;;5.13;;
46845;SDS011;33947;46.804;134.252;2024-02-28T02:51:42;10.68;;;4.38;;
46845;SDS011;33947;46.804;134.252;2024-02-28T02:54:51;8.88;;;3.80;;
46845;SDS011;33947;46.804;134.252;2024-02-28T02:57:57;11.93;;;3.67;;
46845;SDS011;33947;46.804;134.252;2024-02-28T03:01:09;10.85;;;4.10;;
46845;SDS011;33947;46.804;134.252;2024-02-28T03:04:21;12.35;;;4.13;;
46845;SDS011;33947;46.804;134.252;2024-02-28T03:07:30;9.05;;;4.20;;
46845;SDS011;33947;46.804;134.252;2024-02-28T03:10:44;6.93;;;3.30;;
46845;SDS011;33947;46.804;134.252;2024-02-28T03:13:51;9.65;;;3.90;;
46845;SDS011;33947;46.804;134.252;2024-02-28T03:17:01;16.35;;;5.78;;
46845;SDS011;33947;46.804;134.252;2024-02-28T03:20:09;11.45;;;5.90;;
46845;SDS011;33947;46.804;134.252;2024-02-28T03:23:17;36.17;;;12.57;;
46845;SDS011;33947;46.804;134.252;2024-02-28T03:26:26;39.55;;;14.32;;
46845;SDS011;33947;46.804;134.252;2024-02-28T03:29:33;19.20;;;8.65;;
46845;SDS011;33947;46.804;134.252;2024-02-28T03:32:41;23.23;;;10.73;;
46845;SDS011;33947;46.804;134.252;2024-02-28T03:35:48;33.83;;;16.65;;
46845;SDS011;33947;46.804;134.252;2024-02-28T03:38:55;14.50;;;6.40;;
46845;SDS011;33947;46.804;134.252;2024-02-28T03:42:03;13.30;;;5.88;;
46845;SDS011;33947;46.804;134.252;2024-02-28T03:45:12;11.38;;;4.07;;
46845;SDS011;33947;46.804;134.252;2024-02-28T03:48:19;10.57;;;4.20;;
46845;SDS011;33947;46.804;134.252;2024-02-28T03:51:27;10.68;;;4.30;;
46845;SDS011;33947;46.804;134.252;2024-02-28T03:54:34;10.23;;;4.47;;
46845;SDS011;33947;46.804;134.252;2024-02-28T03:57:42;10.23;;;4.15;;
46845;SDS011;33947;46.804;134.252;2024-02-28T04:00:56;6.15;;;3.70;;
46845;SDS011;33947;46.804;134.252;2024-02-28T04:04:02;12.50;;;7.55;;
46845;SDS011;33947;46.804;134.252;2024-02-28T04:07:09;8.73;;;4.90;;
46845;SDS011;33947;46.804;134.252;2024-02-28T04:10:16;10.65;;;4.95;;
46845;SDS011;33947;46.804;134.252;2024-02-28T04:13:25;7.28;;;3.58;;
46845;SDS011;33947;46.804;134.252;2024-02-28T04:16:32;7.93;;;4.00;;
46845;SDS011;33947;46.804;134.252;2024-02-28T04:19:42;9.55;;;4.32;;
46845;SDS011;33947;46.804;134.252;2024-02-28T04:22:49;8.00;;;3.60;;
46845;SDS011;33947;46.804;134.252;2024-02-28T04:25:56;10.18;;;3.88;;
46845;SDS011;33947;46.804;134.252;2024-02-28T04:29:04;10.70;;;4.05;;
46845;SDS011;33947;46.804;134.252;2024-02-28T04:32:17;8.10;;;3.63;;
46845;SDS011;33947;46.804;134.252;2024-02-28T04:35:24;10.02;;;4.40;;
46845;SDS011;33947;46.804;134.252;2024-02-28T04:38:31;9.63;;;4.18;;
46845;SDS011;33947;46.804;134.252;2024-02-28T04:41:38;8.85;;;3.80;;
46845;SDS011;33947;46.804;134.252;2024-02-28T04:44:48;10.60;;;4.35;;
46845;SDS011;33947;46.804;134.252;2024-02-28T04:47:56;8.88;;;4.13;;
46845;SDS011;33947;46.804;134.252;2024-02-28T04:51:03;10.23;;;4.53;;
46845;SDS011;33947;46.804;134.252;2024-02-28T04:54:11;6.78;;;3.90;;
46845;SDS011;33947;46.804;134.252;2024-02-28T04:57:18;12.57;;;5.22;;
46845;SDS011;33947;46.804;134.252;2024-02-28T05:00:27;23.83;;;11.27;;
46845;SDS011;33947;46.804;134.252;2024-02-28T05:03:35;12.73;;;6.38;;
46845;SDS011;33947;46.804;134.252;2024-02-28T05:06:42;24.85;;;11.02;;
46845;SDS011;33947;46.804;134.252;2024-02-28T05:09:50;18.52;;;8.38;;
46845;SDS011;33947;46.804;134.252;2024-02-28T05:12:57;28.98;;;12.75;;
46845;SDS011;33947;46.804;134.252;2024-02-28T05:16:11;25.98;;;11.70;;
46845;SDS011;33947;46.804;134.252;2024-02-28T05:19:19;29.15;;;12.10;;
46845;SDS011;33947;46.804;134.252;2024-02-28T05:22:27;18.85;;;8.48;;
46845;SDS011;33947;46.804;134.252;2024-02-28T05:25:34;14.32;;;6.95;;
46845;SDS011;33947;46.804;134.252;2024-02-28T05:28:41;8.68;;;4.35;;
46845;SDS011;33947;46.804;134.252;2024-02-28T05:31:50;23.00;;;10.82;;
46845;SDS011;33947;46.804;134.252;2024-02-28T05:34:57;34.38;;;13.20;;
46845;SDS011;33947;46.804;134.252;2024-02-28T05:38:05;25.05;;;11.05;;
46845;SDS011;33947;46.804;134.252;2024-02-28T05:41:13;28.90;;;10.80;;
46845;SDS011;33947;46.804;134.252;2024-02-28T05:44:22;20.85;;;7.88;;
46845;SDS011;33947;46.804;134.252;2024-02-28T05:47:30;21.75;;;8.60;;
46845;SDS011;33947;46.804;134.252;2024-02-28T05:50:37;21.52;;;10.55;;
46845;SDS011;33947;46.804;134.252;2024-02-28T05:53:45;19.13;;;7.85;;
46845;SDS011;33947;46.804;134.252;2024-02-28T05:56:51;23.15;;;9.32;;
46845;SDS011;33947;46.804;134.252;2024-02-28T05:59:59;15.98;;;8.07;;
46845;SDS011;33947;46.804;134.252;2024-02-28T06:03:15;19.63;;;8.10;;
46845;SDS011;33947;46.804;134.252;2024-02-28T06:06:22;19.10;;;8.90;;
46845;SDS011;33947;46.804;134.252;2024-02-28T06:09:30;19.30;;;6.43;;
46845;SDS011;33947;46.804;134.252;2024-02-28T06:12:37;13.48;;;7.38;;
46845;SDS011;33947;46.804;134.252;2024-02-28T06:15:44;15.02;;;6.55;;
46845;SDS011;33947;46.804;134.252;2024-02-28T06:18:54;16.42;;;7.60;;
46845;SDS011;33947;46.804;134.252;2024-02-28T06:22:03;13.38;;;5.93;;
46845;SDS011;33947;46.804;134.252;2024-02-28T06:25:11;14.60;;;6.32;;
46845;SDS011;33947;46.804;134.252;2024-02-28T06:28:22;18.00;;;7.57;;
46845;SDS011;33947;46.804;134.252;2024-02-28T06:31:29;14.02;;;6.68;;
46845;SDS011;33947;46.804;134.252;2024-02-28T06:34:37;19.13;;;7.20;;
46845;SDS011;33947;46.804;134.252;2024-02-28T06:37:45;13.90;;;6.78;;
46845;SDS011;33947;46.804;134.252;2024-02-28T06:40:54;13.65;;;6.15;;
46845;SDS011;33947;46.804;134.252;2024-02-28T06:44:01;17.20;;;7.13;;
46845;SDS011;33947;46.804;134.252;2024-02-28T06:47:09;16.52;;;7.18;;
46845;SDS011;33947;46.804;134.252;2024-02-28T06:53:26;13.57;;;5.47;;
46845;SDS011;33947;46.804;134.252;2024-02-28T06:56:33;14.55;;;6.68;;
46845;SDS011;33947;46.804;134.252;2024-02-28T06:59:41;11.88;;;5.20;;
46845;SDS011;33947;46.804;134.252;2024-02-28T07:02:49;13.48;;;5.60;;
46845;SDS011;33947;46.804;134.252;2024-02-28T07:05:59;18.10;;;7.07;;
46845;SDS011;33947;46.804;134.252;2024-02-28T07:09:07;15.30;;;6.07;;
46845;SDS011;33947;46.804;134.252;2024-02-28T07:12:15;15.00;;;7.50;;
46845;SDS011;33947;46.804;134.252;2024-02-28T07:15:22;12.23;;;6.32;;
46845;SDS011;33947;46.804;134.252;2024-02-28T07:18:29;11.60;;;5.50;;
46845;SDS011;33947;46.804;134.252;2024-02-28T07:21:37;9.15;;;5.40;;
46845;SDS011;33947;46.804;134.252;2024-02-28T07:24:45;8.05;;;4.82;;
46845;SDS011;33947;46.804;134.252;2024-02-28T07:27:52;14.23;;;4.78;;
46845;SDS011;33947;46.804;134.252;2024-02-28T07:30:59;12.77;;;5.32;;
46845;SDS011;33947;46.804;134.252;2024-02-28T07:34:06;13.75;;;5.22;;
46845;SDS011;33947;46.804;134.252;2024-02-28T07:40:50;76.90;;;30.60;;
46845;SDS011;33947;46.804;134.252;2024-02-28T07:44:05;33.60;;;12.57;;
46845;SDS011;33947;46.804;134.252;2024-02-28T07:47:15;68.68;;;26.33;;
46845;SDS011;33947;46.804;134.252;2024-02-28T07:50:24;68.90;;;29.30;;
46845;SDS011;33947;46.804;134.252;2024-02-28T07:53:33;82.65;;;31.75;;
46845;SDS011;33947;46.804;134.252;2024-02-28T07:56:45;106.95;;;40.35;;
46845;SDS011;33947;46.804;134.252;2024-02-28T07:59:59;138.60;;;49.22;;
46845;SDS011;33947;46.804;134.252;2024-02-28T08:03:13;50.42;;;21.30;;
46845;SDS011;33947;46.804;134.252;2024-02-28T08:06:21;70.03;;;30.23;;
46845;SDS011;33947;46.804;134.252;2024-02-28T08:09:29;51.80;;;22.42;;
46845;SDS011;33947;46.804;134.252;2024-02-28T08:12:36;48.03;;;20.70;;
46845;SDS011;33947;46.804;134.252;2024-02-28T08:15:43;71.20;;;31.45;;
46845;SDS011;33947;46.804;134.252;2024-02-28T08:18:50;42.80;;;17.95;;
46845;SDS011;33947;46.804;134.252;2024-02-28T08:21:58;45.78;;;16.92;;
46845;SDS011;33947;46.804;134.252;2024-02-28T08:25:08;38.63;;;18.38;;
46845;SDS011;33947;46.804;134.252;2024-02-28T08:28:16;33.47;;;16.33;;
46845;SDS011;33947;46.804;134.252;2024-02-28T08:31:23;28.10;;;12.65;;
46845;SDS011;33947;46.804;134.252;2024-02-28T08:34:30;26.98;;;11.70;;
46845;SDS011;33947;46.804;134.252;2024-02-28T08:37:38;15.63;;;8.15;;
46845;SDS011;33947;46.804;134.252;2024-02-28T08:40:47;17.70;;;7.80;;
46845;SDS011;33947;46.804;134.252;2024-02-28T08:43:56;13.23;;;7.55;;
46845;SDS011;33947;46.804;134.252;2024-02-28T08:47:04;20.33;;;8.27;;
46845;SDS011;33947;46.804;134.252;2024-02-28T08:50:13;14.43;;;7.38;;
46845;SDS011;33947;46.804;134.252;2024-02-28T08:53:20;15.50;;;6.90;;
46845;SDS011;33947;46.804;134.252;2024-02-28T08:56:32;17.77;;;7.68;;
46845;SDS011;33947;46.804;134.252;2024-02-28T08:59:41;11.45;;;6.65;;
46845;SDS011;33947;46.804;134.252;2024-02-28T09:02:50;36.80;;;14.38;;
46845;SDS011;33947;46.804;134.252;2024-02-28T09:05:59;84.90;;;39.22;;
46845;SDS011;33947;46.804;134.252;2024-02-28T09:09:07;154.60;;;58.20;;
46845;SDS011;33947;46.804;134.252;2024-02-28T09:12:16;144.93;;;54.55;;
46845;SDS011;33947;46.804;134.252;2024-02-28T09:15:23;109.40;;;39.42;;
46845;SDS011;33947;46.804;134.252;2024-02-28T09:18:31;165.80;;;63.20;;
46845;SDS011;33947;46.804;134.252;2024-02-28T09:21:38;163.38;;;58.33;;
46845;SDS011;33947;46.804;134.252;2024-02-28T09:24:46;156.15;;;54.80;;
46845;SDS011;33947;46.804;134.252;2024-02-28T09:27:54;78.43;;;32.70;;
46845;SDS011;33947;46.804;134.252;2024-02-28T09:31:02;74.88;;;33.22;;
46845;SDS011;33947;46.804;134.252;2024-02-28T09:34:09;94.90;;;40.03;;
46845;SDS011;33947;46.804;134.252;2024-02-28T09:37:16;98.75;;;39.67;;
46845;SDS011;33947;46.804;134.252;2024-02-28T09:40:24;116.53;;;44.42;;
46845;SDS011;33947;46.804;134.252;2024-02-28T09:43:34;145.52;;;61.58;;
46845;SDS011;33947;46.804;134.252;2024-02-28T09:46:47;145.15;;;61.15;;
46845;SDS011;33947;46.804;134.252;2024-02-28T09:49:56;149.73;;;63.97;;
46845;SDS011;33947;46.804;134.252;2024-02-28T09:53:05;137.45;;;55.28;;
46845;SDS011;33947;46.804;134.252;2024-02-28T09:56:13;117.15;;;47.15;;
46845;SDS011;33947;46.804;134.252;2024-02-28T09:59:26;108.78;;;46.15;;
46845;SDS011;33947;46.804;134.252;2024-02-28T10:02:49;103.63;;;45.95;;
46845;SDS011;33947;46.804;134.252;2024-02-28T10:05:57;107.45;;;46.67;;
46845;SDS011;33947;46.804;134.252;2024-02-28T10:09:08;125.93;;;47.20;;
46845;SDS011;33947;46.804;134.252;2024-02-28T10:12:16;81.22;;;37.38;;
46845;SDS011;33947;46.804;134.252;2024-02-28T10:15:25;93.40;;;41.00;;
46845;SDS011;33947;46.804;134.252;2024-02-28T10:18:37;88.07;;;39.85;;
46845;SDS011;33947;46.804;134.252;2024-02-28T10:21:46;81.85;;;36.83;;
46845;SDS011;33947;46.804;134.252;2024-02-28T10:24:58;81.28;;;34.58;;
46845;SDS011;33947;46.804;134.252;2024-02-28T10:28:06;82.75;;;35.22;;
46845;SDS011;33947;46.804;134.252;2024-02-28T10:31:14;92.28;;;36.70;;
46845;SDS011;33947;46.804;134.252;2024-02-28T10:34:22;97.05;;;36.28;;
46845;SDS011;33947;46.804;134.252;2024-02-28T10:37:29;114.80;;;46.45;;
46845;SDS011;33947;46.804;134.252;2024-02-28T10:40:40;134.18;;;52.15;;
46845;SDS011;33947;46.804;134.252;2024-02-28T10:43:48;148.13;;;57.80;;
46845;SDS011;33947;46.804;134.252;2024-02-28T10:46:58;198.50;;;77.32;;
46845;SDS011;33947;46.804;134.252;2024-02-28T10:50:06;142.55;;;56.55;;
46845;SDS011;33947;46.804;134.252;2024-02-28T10:53:14;147.75;;;57.47;;
46845;SDS011;33947;46.804;134.252;2024-02-28T10:56:21;147.32;;;54.13;;
46845;SDS011;33947;46.804;134.252;2024-02-28T10:59:28;144.50;;;56.53;;
46845;SDS011;33947;46.804;134.252;2024-02-28T11:02:40;166.85;;;65.82;;
46845;SDS011;33947;46.804;134.252;2024-02-28T11:05:47;151.15;;;57.75;;
46845;SDS011;33947;46.804;134.252;2024-02-28T11:08:54;183.48;;;68.25;;
46845;SDS011;33947;46.804;134.252;2024-02-28T11:12:03;179.40;;;67.47;;
46845;SDS011;33947;46.804;134.252;2024-02-28T11:15:16;205.00;;;76.78;;
46845;SDS011;33947;46.804;134.252;2024-02-28T11:18:24;211.23;;;75.25;;
46845;SDS011;33947;46.804;134.252;2024-02-28T11:21:33;207.52;;;76.65;;
46845;SDS011;33947;46.804;134.252;2024-02-28T11:24:41;182.75;;;69.15;;
46845;SDS011;33947;46.804;134.252;2024-02-28T11:27:50;195.52;;;72.15;;
46845;SDS011;33947;46.804;134.252;2024-02-28T11:30:58;196.85;;;73.68;;
46845;SDS011;33947;46.804;134.252;2024-02-28T11:34:08;223.05;;;79.55;;
46845;SDS011;33947;46.804;134.252;2024-02-28T11:37:15;229.38;;;80.32;;
46845;SDS011;33947;46.804;134.252;2024-02-28T11:40:23;295.08;;;107.22;;
46845;SDS011;33947;46.804;134.252;2024-02-28T11:43:31;266.48;;;97.97;;
46845;SDS011;33947;46.804;134.252;2024-02-28T11:46:53;287.98;;;100.47;;
46845;SDS011;33947;46.804;134.252;2024-02-28T11:50:02;252.77;;;86.32;;
46845;SDS011;33947;46.804;134.252;2024-02-28T11:53:12;210.70;;;74.35;;
46845;SDS011;33947;46.804;134.252;2024-02-28T11:56:20;246.27;;;86.28;;
46845;SDS011;33947;46.804;134.252;2024-02-28T11:59:26;224.40;;;79.78;;
46845;SDS011;33947;46.804;134.252;2024-02-28T12:02:33;234.38;;;83.95;;
46845;SDS011;33947;46.804;134.252;2024-02-28T12:05:44;236.00;;;82.53;;
46845;SDS011;33947;46.804;134.252;2024-02-28T12:08:53;205.63;;;73.75;;
46845;SDS011;33947;46.804;134.252;2024-02-28T12:12:00;212.13;;;70.97;;
46845;SDS011;33947;46.804;134.252;2024-02-28T12:15:10;216.00;;;74.65;;
46845;SDS011;33947;46.804;134.252;2024-02-28T12:18:19;201.15;;;69.35;;
46845;SDS011;33947;46.804;134.252;2024-02-28T12:21:27;204.52;;;72.15;;
46845;SDS011;33947;46.804;134.252;2024-02-28T12:24:35;179.73;;;66.10;;
46845;SDS011;33947;46.804;134.252;2024-02-28T12:27:45;211.05;;;70.90;;
46845;SDS011;33947;46.804;134.252;2024-02-28T12:30:53;228.32;;;78.55;;
46845;SDS011;33947;46.804;134.252;2024-02-28T12:34:00;240.98;;;90.82;;
46845;SDS011;33947;46.804;134.252;2024-02-28T12:37:10;208.52;;;76.15;;
46845;SDS011;33947;46.804;134.252;2024-02-28T12:40:20;241.00;;;99.43;;
46845;SDS011;33947;46.804;134.252;2024-02-28T12:43:29;197.82;;;71.38;;
46845;SDS011;33947;46.804;134.252;2024-02-28T12:46:37;204.65;;;76.57;;
46845;SDS011;33947;46.804;134.252;2024-02-28T12:49:44;203.82;;;76.22;;
46845;SDS011;33947;46.804;134.252;2024-02-28T12:52:53;165.90;;;62.75;;
46845;SDS011;33947;46.804;134.252;2024-02-28T12:56:03;184.35;;;65.03;;
46845;SDS011;33947;46.804;134.252;2024-02-28T12:59:10;223.00;;;75.22;;
46845;SDS011;33947;46.804;134.252;2024-02-28T13:02:17;209.55;;;70.28;;
46845;SDS011;33947;46.804;134.252;2024-02-28T13:05:24;238.57;;;82.68;;
46845;SDS011;33947;46.804;134.252;2024-02-28T13:08:36;208.88;;;74.32;;
46845;SDS011;33947;46.804;134.252;2024-02-28T13:11:42;339.00;;;104.60;;
46845;SDS011;33947;46.804;134.252;2024-02-28T13:14:50;292.88;;;92.50;;
46845;SDS011;33947;46.804;134.252;2024-02-28T13:17:57;272.92;;;88.90;;
46845;SDS011;33947;46.804;134.252;2024-02-28T13:21:06;308.70;;;104.80;;
46845;SDS011;33947;46.804;134.252;2024-02-28T13:24:14;310.45;;;102.97;;
46845;SDS011;33947;46.804;134.252;2024-02-28T13:27:21;356.67;;;123.93;;
46845;SDS011;33947;46.804;134.252;2024-02-28T13:30:29;402.38;;;119.40;;
46845;SDS011;33947;46.804;134.252;2024-02-28T13:33:36;332.17;;;105.60;;
46845;SDS011;33947;46.804;134.252;2024-02-28T13:36:45;267.48;;;87.68;;
46845;SDS011;33947;46.804;134.252;2024-02-28T13:39:53;273.35;;;89.38;;
46845;SDS011;33947;46.804;134.252;2024-02-28T13:43:01;275.50;;;87.22;;
46845;SDS011;33947;46.804;134.252;2024-02-28T13:46:08;268.80;;;87.20;;
46845;SDS011;33947;46.804;134.252;2024-02-28T13:49:16;257.48;;;84.70;;
46845;SDS011;33947;46.804;134.252;2024-02-28T13:52:24;245.18;;;80.35;;
46845;SDS011;33947;46.804;134.252;2024-02-28T13:55:32;232.77;;;74.80;;
46845;SDS011;33947;46.804;134.252;2024-02-28T13:58:40;232.60;;;76.18;;
46845;SDS011;33947;46.804;134.252;2024-02-28T14:01:56;231.13;;;76.32;;
46845;SDS011;33947;46.804;134.252;2024-02-28T14:05:04;216.63;;;73.00;;
46845;SDS011;33947;46.804;134.252;2024-02-28T14:08:13;232.05;;;77.18;;
46845;SDS011;33947;46.804;134.252;2024-02-28T14:11:22;219.00;;;77.60;;
46845;SDS011;33947;46.804;134.252;2024-02-28T14:14:30;211.95;;;72.55;;
46845;SDS011;33947;46.804;134.252;2024-02-28T14:17:36;201.50;;;67.63;;
46845;SDS011;33947;46.804;134.252;2024-02-28T14:20:43;248.30;;;80.50;;
46845;SDS011;33947;46.804;134.252;2024-02-28T14:23:50;242.05;;;81.03;;
46845;SDS011;33947;46.804;134.252;2024-02-28T14:27:00;263.60;;;87.53;;
46845;SDS011;33947;46.804;134.252;2024-02-28T14:30:09;267.40;;;86.13;;
46845;SDS011;33947;46.804;134.252;2024-02-28T14:33:17;293.38;;;93.20;;
46845;SDS011;33947;46.804;134.252;2024-02-28T14:36:26;273.88;;;87.55;;
46845;SDS011;33947;46.804;134.252;2024-02-28T14:39:33;294.63;;;91.88;;
46845;SDS011;33947;46.804;134.252;2024-02-28T14:42:42;304.42;;;94.78;;
46845;SDS011;33947;46.804;134.252;2024-02-28T14:45:50;312.92;;;97.38;;
46845;SDS011;33947;46.804;134.252;2024-02-28T14:48:57;319.25;;;95.70;;
46845;SDS011;33947;46.804;134.252;2024-02-28T14:52:06;309.08;;;92.72;;
46845;SDS011;33947;46.804;134.252;2024-02-28T14:55:14;351.05;;;105.50;;
46845;SDS011;33947;46.804;134.252;2024-02-28T14:58:23;297.08;;;95.60;;
46845;SDS011;33947;46.804;134.252;2024-02-28T15:01:31;259.02;;;82.05;;
46845;SDS011;33947;46.804;134.252;2024-02-28T15:04:38;234.00;;;75.22;;
46845;SDS011;33947;46.804;134.252;2024-02-28T15:07:45;233.05;;;68.80;;
46845;SDS011;33947;46.804;134.252;2024-02-28T15:10:52;227.32;;;69.68;;
46845;SDS011;33947;46.804;134.252;2024-02-28T15:14:02;237.15;;;74.80;;
46845;SDS011;33947;46.804;134.252;2024-02-28T15:17:09;281.92;;;89.70;;
46845;SDS011;33947;46.804;134.252;2024-02-28T15:20:16;249.70;;;71.60;;
46845;SDS011;33947;46.804;134.252;2024-02-28T15:23:24;270.75;;;83.07;;
46845;SDS011;33947;46.804;134.252;2024-02-28T15:26:34;286.88;;;87.68;;
46845;SDS011;33947;46.804;134.252;2024-02-28T15:29:51;267.40;;;82.68;;
46845;SDS011;33947;46.804;134.252;2024-02-28T15:32:58;243.35;;;75.68;;
46845;SDS011;33947;46.804;134.252;2024-02-28T15:36:08;273.08;;;88.18;;
46845;SDS011;33947;46.804;134.252;2024-02-28T15:39:15;254.02;;;81.95;;
46845;SDS011;33947;46.804;134.252;2024-02-28T15:42:22;315.63;;;100.60;;
46845;SDS011;33947;46.804;134.252;2024-02-28T15:45:30;320.98;;;105.95;;
46845;SDS011;33947;46.804;134.252;2024-02-28T15:48:38;306.25;;;99.40;;
46845;SDS011;33947;46.804;134.252;2024-02-28T15:51:45;361.60;;;113.88;;
46845;SDS011;33947;46.804;134.252;2024-02-28T15:54:53;444.17;;;131.82;;
46845;SDS011;33947;46.804;134.252;2024-02-28T15:58:01;278.42;;;89.32;;
46845;SDS011;33947;46.804;134.252;2024-02-28T16:01:10;302.90;;;85.03;;
46845;SDS011;33947;46.804;134.252;2024-02-28T16:04:17;235.93;;;73.40;;
46845;SDS011;33947;46.804;134.252;2024-02-28T16:07:24;248.23;;;71.00;;
46845;SDS011;33947;46.804;134.252;2024-02-28T16:10:31;283.35;;;84.05;;
46845;SDS011;33947;46.804;134.252;2024-02-28T16:13:49;248.88;;;71.75;;
46845;SDS011;33947;46.804;134.252;2024-02-28T16:16:58;265.13;;;74.30;;
46845;SDS011;33947;46.804;134.252;2024-02-28T16:20:05;152.27;;;45.83;;
46845;SDS011;33947;46.804;134.252;2024-02-28T16:23:16;133.20;;;40.03;;
46845;SDS011;33947;46.804;134.252;2024-02-28T16:26:23;138.27;;;45.80;;
46845;SDS011;33947;46.804;134.252;2024-02-28T16:29:30;160.52;;;51.55;;
46845;SDS011;33947;46.804;134.252;2024-02-28T16:32:39;167.68;;;52.60;;
46845;SDS011;33947;46.804;134.252;2024-02-28T16:35:46;147.43;;;49.13;;
46845;SDS011;33947;46.804;134.252;2024-02-28T16:38:54;173.48;;;54.28;;
46845;SDS011;33947;46.804;134.252;2024-02-28T16:42:01;158.48;;;52.20;;
46845;SDS011;33947;46.804;134.252;2024-02-28T16:45:08;160.15;;;48.55;;
46845;SDS011;33947;46.804;134.252;2024-02-28T16:48:17;126.30;;;42.63;;
46845;SDS011;33947;46.804;134.252;2024-02-28T16:51:24;146.68;;;49.75;;
46845;SDS011;33947;46.804;134.252;2024-02-28T16:54:31;193.82;;;53.35;;
46845;SDS011;33947;46.804;134.252;2024-02-28T16:57:38;190.93;;;57.00;;
46845;SDS011;33947;46.804;134.252;2024-02-28T17:00:47;192.57;;;58.60;;
46845;SDS011;33947;46.804;134.252;2024-02-28T17:03:55;176.68;;;54.72;;
46845;SDS011;33947;46.804;134.252;2024-02-28T17:07:03;188.63;;;54.88;;
46845;SDS011;33947;46.804;134.252;2024-02-28T17:10:10;165.65;;;49.40;;
46845;SDS011;33947;46.804;134.252;2024-02-28T17:13:17;176.68;;;55.80;;
46845;SDS011;33947;46.804;134.252;2024-02-28T17:16:24;169.27;;;53.25;;
46845;SDS011;33947;46.804;134.252;2024-02-28T17:19:33;170.63;;;48.88;;
46845;SDS011;33947;46.804;134.252;2024-02-28T17:22:40;147.35;;;45.55;;
46845;SDS011;33947;46.804;134.252;2024-02-28T17:25:47;149.95;;;48.75;;
46845;SDS011;33947;46.804;134.252;2024-02-28T17:28:54;148.07;;;47.90;;
46845;SDS011;33947;46.804;134.252;2024-02-28T17:32:02;173.02;;;50.90;;
46845;SDS011;33947;46.804;134.252;2024-02-28T17:35:11;166.32;;;49.30;;
46845;SDS011;33947;46.804;134.252;2024-02-28T17:38:18;147.13;;;46.13;;
46845;SDS011;33947;46.804;134.252;2024-02-28T17:41:25;149.73;;;46.10;;
46845;SDS011;33947;46.804;134.252;2024-02-28T17:44:32;145.13;;;47.40;;
46845;SDS011;33947;46.804;134.252;2024-02-28T17:47:40;131.20;;;46.28;;
46845;SDS011;33947;46.804;134.252;2024-02-28T17:50:49;122.10;;;45.15;;
46845;SDS011;33947;46.804;134.252;2024-02-28T17:53:56;130.25;;;44.38;;
46845;SDS011;33947;46.804;134.252;2024-02-28T17:57:04;118.68;;;39.15;;
46845;SDS011;33947;46.804;134.252;2024-02-28T18:00:11;108.38;;;39.33;;